sensor_id;sensor_type;location;lat;lon;timestamp;P1;durP1;ratioP1;P2;durP2;ratioP2
43042;SDS011;28667;50.758;6.096;2023-11-19T00:00:16;0.40;;;0.40;;
43042;SDS011;28667;50.758;6.096;2023-11-19T00:02:42;0.30;;;0.30;;
43042;SDS011;28667;50.758;6.096;2023-11-19T00:05:08;1.27;;;0.52;;
43042;SDS011;28667;50.758;6.096;2023-11-19T00:07:37;0.90;;;0.50;;
43042;SDS011;28667;50.758;6.096;2023-11-19T00:10:09;0.55;;;0.35;;
43042;SDS011;28667;50.758;6.096;2023-11-19T00:12:37;0.40;;;0.40;;
43042;SDS011;28667;50.758;6.096;2023-11-19T00:15:05;0.40;;;0.38;;
43042;SDS011;28667;50.758;6.096;2023-11-19T00:17:31;0.22;;;0.22;;
43042;SDS011;28667;50.758;6.096;2023-11-19T00:19:57;0.50;;;0.40;;
43042;SDS011;28667;50.758;6.096;2023-11-19T00:22:23;0.60;;;0.60;;
43042;SDS011;28667;50.758;6.096;2023-11-19T00:24:51;0.73;;;0.40;;
43042;SDS011;28667;50.758;6.096;2023-11-19T00:27:16;1.33;;;0.65;;
43042;SDS011;28667;50.758;6.096;2023-11-19T00:29:43;2.67;;;0.73;;
43042;SDS011;28667;50.758;6.096;2023-11-19T00:32:11;1.85;;;0.80;;
43042;SDS011;28667;50.758;6.096;2023-11-19T00:34:37;0.50;;;0.50;;
43042;SDS011;28667;50.758;6.096;2023-11-19T00:37:02;1.27;;;0.60;;
43042;SDS011;28667;50.758;6.096;2023-11-19T00:39:29;1.33;;;1.10;;
43042;SDS011;28667;50.758;6.096;2023-11-19T00:41:54;1.35;;;1.00;;
43042;SDS011;28667;50.758;6.096;2023-11-19T00:44:20;1.55;;;0.98;;
43042;SDS011;28667;50.758;6.096;2023-11-19T00:46:46;1.15;;;1.00;;
43042;SDS011;28667;50.758;6.096;2023-11-19T00:49:12;1.35;;;1.00;;
43042;SDS011;28667;50.758;6.096;2023-11-19T00:51:38;2.53;;;1.42;;
43042;SDS011;28667;50.758;6.096;2023-11-19T00:54:04;1.50;;;1.40;;
43042;SDS011;28667;50.758;6.096;2023-11-19T00:56:30;1.83;;;1.20;;
43042;SDS011;28667;50.758;6.096;2023-11-19T00:58:55;1.88;;;1.00;;
43042;SDS011;28667;50.758;6.096;2023-11-19T01:01:21;3.67;;;1.88;;
43042;SDS011;28667;50.758;6.096;2023-11-19T01:03:47;2.40;;;1.20;;
43042;SDS011;28667;50.758;6.096;2023-11-19T01:06:13;2.13;;;1.20;;
43042;SDS011;28667;50.758;6.096;2023-11-19T01:08:42;1.52;;;1.17;;
43042;SDS011;28667;50.758;6.096;2023-11-19T01:11:19;4.70;;;1.05;;
43042;SDS011;28667;50.758;6.096;2023-11-19T01:13:46;2.08;;;1.00;;
43042;SDS011;28667;50.758;6.096;2023-11-19T01:16:11;0.95;;;0.80;;
43042;SDS011;28667;50.758;6.096;2023-11-19T01:18:38;1.65;;;0.90;;
43042;SDS011;28667;50.758;6.096;2023-11-19T01:21:04;3.55;;;1.08;;
43042;SDS011;28667;50.758;6.096;2023-11-19T01:23:30;1.48;;;1.00;;
43042;SDS011;28667;50.758;6.096;2023-11-19T01:25:56;2.45;;;1.13;;
43042;SDS011;28667;50.758;6.096;2023-11-19T01:28:22;3.45;;;0.90;;
43042;SDS011;28667;50.758;6.096;2023-11-19T01:30:50;2.10;;;0.90;;
43042;SDS011;28667;50.758;6.096;2023-11-19T01:33:16;5.85;;;1.10;;
43042;SDS011;28667;50.758;6.096;2023-11-19T01:35:42;3.22;;;1.05;;
43042;SDS011;28667;50.758;6.096;2023-11-19T01:38:07;3.13;;;1.00;;
43042;SDS011;28667;50.758;6.096;2023-11-19T01:40:34;2.47;;;1.10;;
43042;SDS011;28667;50.758;6.096;2023-11-19T01:43:01;2.72;;;1.17;;
43042;SDS011;28667;50.758;6.096;2023-11-19T01:45:29;5.90;;;1.30;;
43042;SDS011;28667;50.758;6.096;2023-11-19T01:47:58;4.70;;;1.38;;
43042;SDS011;28667;50.758;6.096;2023-11-19T01:50:28;2.53;;;1.33;;
43042;SDS011;28667;50.758;6.096;2023-11-19T01:52:55;7.47;;;1.30;;
43042;SDS011;28667;50.758;6.096;2023-11-19T01:55:25;4.15;;;1.10;;
43042;SDS011;28667;50.758;6.096;2023-11-19T01:57:58;2.20;;;1.35;;
43042;SDS011;28667;50.758;6.096;2023-11-19T02:00:26;5.97;;;1.30;;
43042;SDS011;28667;50.758;6.096;2023-11-19T02:02:52;3.28;;;1.60;;
43042;SDS011;28667;50.758;6.096;2023-11-19T02:05:17;7.70;;;1.90;;
43042;SDS011;28667;50.758;6.096;2023-11-19T02:07:43;5.55;;;1.67;;
43042;SDS011;28667;50.758;6.096;2023-11-19T02:10:11;5.60;;;1.65;;
43042;SDS011;28667;50.758;6.096;2023-11-19T02:12:40;8.10;;;1.50;;
43042;SDS011;28667;50.758;6.096;2023-11-19T02:15:10;4.50;;;1.50;;
43042;SDS011;28667;50.758;6.096;2023-11-19T02:17:35;7.35;;;1.95;;
43042;SDS011;28667;50.758;6.096;2023-11-19T02:20:06;5.38;;;1.10;;
43042;SDS011;28667;50.758;6.096;2023-11-19T02:22:35;10.23;;;1.60;;
43042;SDS011;28667;50.758;6.096;2023-11-19T02:25:03;5.35;;;1.60;;
43042;SDS011;28667;50.758;6.096;2023-11-19T02:30:22;7.32;;;1.25;;
43042;SDS011;28667;50.758;6.096;2023-11-19T02:32:52;7.38;;;1.85;;
43042;SDS011;28667;50.758;6.096;2023-11-19T02:35:19;5.43;;;1.80;;
43042;SDS011;28667;50.758;6.096;2023-11-19T02:37:47;5.43;;;1.50;;
43042;SDS011;28667;50.758;6.096;2023-11-19T02:40:12;6.13;;;1.73;;
43042;SDS011;28667;50.758;6.096;2023-11-19T02:42:38;5.35;;;1.63;;
43042;SDS011;28667;50.758;6.096;2023-11-19T02:45:04;5.78;;;1.60;;
43042;SDS011;28667;50.758;6.096;2023-11-19T02:47:32;10.27;;;1.70;;
43042;SDS011;28667;50.758;6.096;2023-11-19T02:49:58;8.75;;;1.67;;
43042;SDS011;28667;50.758;6.096;2023-11-19T02:52:24;10.13;;;1.98;;
43042;SDS011;28667;50.758;6.096;2023-11-19T02:54:50;7.22;;;1.50;;
43042;SDS011;28667;50.758;6.096;2023-11-19T02:57:17;5.85;;;1.50;;
43042;SDS011;28667;50.758;6.096;2023-11-19T02:59:44;5.93;;;1.42;;
43042;SDS011;28667;50.758;6.096;2023-11-19T03:02:10;7.22;;;1.50;;
43042;SDS011;28667;50.758;6.096;2023-11-19T03:04:37;6.15;;;1.70;;
43042;SDS011;28667;50.758;6.096;2023-11-19T03:07:08;6.97;;;1.73;;
43042;SDS011;28667;50.758;6.096;2023-11-19T03:09:34;4.47;;;1.27;;
43042;SDS011;28667;50.758;6.096;2023-11-19T03:12:05;6.80;;;1.70;;
43042;SDS011;28667;50.758;6.096;2023-11-19T03:14:33;7.00;;;1.80;;
43042;SDS011;28667;50.758;6.096;2023-11-19T03:16:59;7.20;;;1.70;;
43042;SDS011;28667;50.758;6.096;2023-11-19T03:19:25;7.10;;;1.90;;
43042;SDS011;28667;50.758;6.096;2023-11-19T03:21:52;7.80;;;2.00;;
43042;SDS011;28667;50.758;6.096;2023-11-19T03:24:17;9.15;;;2.55;;
43042;SDS011;28667;50.758;6.096;2023-11-19T03:26:47;12.43;;;1.90;;
43042;SDS011;28667;50.758;6.096;2023-11-19T03:29:15;8.90;;;2.20;;
43042;SDS011;28667;50.758;6.096;2023-11-19T03:31:44;9.65;;;2.15;;
43042;SDS011;28667;50.758;6.096;2023-11-19T03:34:10;7.25;;;2.10;;
43042;SDS011;28667;50.758;6.096;2023-11-19T03:36:35;12.07;;;2.17;;
43042;SDS011;28667;50.758;6.096;2023-11-19T03:39:01;11.27;;;2.20;;
43042;SDS011;28667;50.758;6.096;2023-11-19T03:41:28;7.28;;;1.77;;
43042;SDS011;28667;50.758;6.096;2023-11-19T03:43:54;5.28;;;1.90;;
43042;SDS011;28667;50.758;6.096;2023-11-19T03:46:20;5.90;;;2.42;;
43042;SDS011;28667;50.758;6.096;2023-11-19T03:48:47;7.78;;;1.90;;
43042;SDS011;28667;50.758;6.096;2023-11-19T03:51:14;6.57;;;1.83;;
43042;SDS011;28667;50.758;6.096;2023-11-19T03:53:44;5.85;;;1.67;;
43042;SDS011;28667;50.758;6.096;2023-11-19T03:56:10;13.25;;;2.95;;
43042;SDS011;28667;50.758;6.096;2023-11-19T03:58:37;6.82;;;2.05;;
43042;SDS011;28667;50.758;6.096;2023-11-19T04:01:10;13.93;;;2.08;;
43042;SDS011;28667;50.758;6.096;2023-11-19T04:03:38;8.10;;;2.10;;
43042;SDS011;28667;50.758;6.096;2023-11-19T04:06:04;14.85;;;2.20;;
43042;SDS011;28667;50.758;6.096;2023-11-19T04:08:30;6.85;;;1.67;;
43042;SDS011;28667;50.758;6.096;2023-11-19T04:10:56;13.50;;;1.98;;
43042;SDS011;28667;50.758;6.096;2023-11-19T04:13:21;6.68;;;1.80;;
43042;SDS011;28667;50.758;6.096;2023-11-19T04:15:49;7.88;;;1.63;;
43042;SDS011;28667;50.758;6.096;2023-11-19T04:18:15;8.10;;;1.90;;
43042;SDS011;28667;50.758;6.096;2023-11-19T04:20:41;9.80;;;2.30;;
43042;SDS011;28667;50.758;6.096;2023-11-19T04:23:10;12.63;;;1.80;;
43042;SDS011;28667;50.758;6.096;2023-11-19T04:25:36;14.57;;;2.00;;
43042;SDS011;28667;50.758;6.096;2023-11-19T04:28:02;11.60;;;2.28;;
43042;SDS011;28667;50.758;6.096;2023-11-19T04:30:28;13.95;;;2.30;;
43042;SDS011;28667;50.758;6.096;2023-11-19T04:32:54;13.75;;;2.28;;
43042;SDS011;28667;50.758;6.096;2023-11-19T04:35:20;18.10;;;2.40;;
43042;SDS011;28667;50.758;6.096;2023-11-19T04:37:46;19.33;;;2.45;;
43042;SDS011;28667;50.758;6.096;2023-11-19T04:40:12;16.55;;;2.47;;
43042;SDS011;28667;50.758;6.096;2023-11-19T04:42:38;14.38;;;2.35;;
43042;SDS011;28667;50.758;6.096;2023-11-19T04:45:07;13.52;;;3.00;;
43042;SDS011;28667;50.758;6.096;2023-11-19T04:47:35;10.40;;;2.72;;
43042;SDS011;28667;50.758;6.096;2023-11-19T04:50:02;11.70;;;2.08;;
43042;SDS011;28667;50.758;6.096;2023-11-19T04:52:28;15.40;;;2.88;;
43042;SDS011;28667;50.758;6.096;2023-11-19T04:54:54;16.08;;;2.85;;
43042;SDS011;28667;50.758;6.096;2023-11-19T04:57:20;14.20;;;3.08;;
43042;SDS011;28667;50.758;6.096;2023-11-19T04:59:45;15.45;;;2.35;;
43042;SDS011;28667;50.758;6.096;2023-11-19T05:02:12;8.52;;;2.15;;
43042;SDS011;28667;50.758;6.096;2023-11-19T05:04:42;16.17;;;2.60;;
43042;SDS011;28667;50.758;6.096;2023-11-19T05:07:09;16.65;;;2.85;;
43042;SDS011;28667;50.758;6.096;2023-11-19T05:09:35;20.90;;;2.63;;
43042;SDS011;28667;50.758;6.096;2023-11-19T05:12:00;9.30;;;2.70;;
43042;SDS011;28667;50.758;6.096;2023-11-19T05:14:27;12.25;;;2.67;;
43042;SDS011;28667;50.758;6.096;2023-11-19T05:16:53;11.75;;;2.47;;
43042;SDS011;28667;50.758;6.096;2023-11-19T05:19:18;18.90;;;2.63;;
43042;SDS011;28667;50.758;6.096;2023-11-19T05:21:44;15.98;;;2.45;;
43042;SDS011;28667;50.758;6.096;2023-11-19T05:24:10;13.48;;;2.70;;
43042;SDS011;28667;50.758;6.096;2023-11-19T05:26:39;19.35;;;2.70;;
43042;SDS011;28667;50.758;6.096;2023-11-19T05:29:05;11.73;;;2.67;;
43042;SDS011;28667;50.758;6.096;2023-11-19T05:31:31;12.90;;;2.92;;
43042;SDS011;28667;50.758;6.096;2023-11-19T05:33:57;14.73;;;2.95;;
43042;SDS011;28667;50.758;6.096;2023-11-19T05:36:22;16.70;;;2.65;;
43042;SDS011;28667;50.758;6.096;2023-11-19T05:38:48;15.15;;;2.78;;
43042;SDS011;28667;50.758;6.096;2023-11-19T05:41:14;21.70;;;3.80;;
43042;SDS011;28667;50.758;6.096;2023-11-19T05:43:40;18.05;;;2.95;;
43042;SDS011;28667;50.758;6.096;2023-11-19T05:46:06;15.90;;;2.47;;
43042;SDS011;28667;50.758;6.096;2023-11-19T05:48:32;15.13;;;2.17;;
43042;SDS011;28667;50.758;6.096;2023-11-19T05:50:58;12.05;;;2.80;;
43042;SDS011;28667;50.758;6.096;2023-11-19T05:53:24;12.10;;;2.47;;
43042;SDS011;28667;50.758;6.096;2023-11-19T05:55:50;15.38;;;2.60;;
43042;SDS011;28667;50.758;6.096;2023-11-19T05:58:20;16.60;;;3.00;;
43042;SDS011;28667;50.758;6.096;2023-11-19T06:00:54;11.23;;;2.53;;
43042;SDS011;28667;50.758;6.096;2023-11-19T06:03:20;14.90;;;2.38;;
43042;SDS011;28667;50.758;6.096;2023-11-19T06:05:49;20.17;;;3.22;;
43042;SDS011;28667;50.758;6.096;2023-11-19T06:08:15;16.42;;;2.55;;
43042;SDS011;28667;50.758;6.096;2023-11-19T06:10:42;19.00;;;2.58;;
43042;SDS011;28667;50.758;6.096;2023-11-19T06:13:11;18.08;;;2.65;;
43042;SDS011;28667;50.758;6.096;2023-11-19T06:15:37;12.27;;;2.28;;
43042;SDS011;28667;50.758;6.096;2023-11-19T06:18:03;23.15;;;3.97;;
43042;SDS011;28667;50.758;6.096;2023-11-19T06:20:29;15.50;;;2.42;;
43042;SDS011;28667;50.758;6.096;2023-11-19T06:22:56;15.18;;;2.75;;
43042;SDS011;28667;50.758;6.096;2023-11-19T06:25:23;16.58;;;2.90;;
43042;SDS011;28667;50.758;6.096;2023-11-19T06:27:51;12.68;;;2.30;;
43042;SDS011;28667;50.758;6.096;2023-11-19T06:30:18;15.70;;;2.58;;
43042;SDS011;28667;50.758;6.096;2023-11-19T06:32:44;16.70;;;2.92;;
43042;SDS011;28667;50.758;6.096;2023-11-19T06:35:10;17.20;;;2.97;;
43042;SDS011;28667;50.758;6.096;2023-11-19T06:37:38;18.65;;;2.83;;
43042;SDS011;28667;50.758;6.096;2023-11-19T06:40:04;17.23;;;2.78;;
43042;SDS011;28667;50.758;6.096;2023-11-19T06:42:31;16.17;;;2.97;;
43042;SDS011;28667;50.758;6.096;2023-11-19T06:44:56;16.85;;;3.78;;
43042;SDS011;28667;50.758;6.096;2023-11-19T06:47:25;17.88;;;2.60;;
43042;SDS011;28667;50.758;6.096;2023-11-19T06:49:54;8.73;;;2.65;;
43042;SDS011;28667;50.758;6.096;2023-11-19T06:52:20;15.52;;;2.85;;
43042;SDS011;28667;50.758;6.096;2023-11-19T06:54:46;13.48;;;2.97;;
43042;SDS011;28667;50.758;6.096;2023-11-19T06:57:12;19.77;;;3.17;;
43042;SDS011;28667;50.758;6.096;2023-11-19T06:59:38;18.77;;;3.30;;
43042;SDS011;28667;50.758;6.096;2023-11-19T07:02:05;19.42;;;3.00;;
43042;SDS011;28667;50.758;6.096;2023-11-19T07:04:31;21.42;;;2.97;;
43042;SDS011;28667;50.758;6.096;2023-11-19T07:06:58;18.65;;;3.13;;
43042;SDS011;28667;50.758;6.096;2023-11-19T07:09:25;19.17;;;3.40;;
43042;SDS011;28667;50.758;6.096;2023-11-19T07:11:50;12.63;;;3.03;;
43042;SDS011;28667;50.758;6.096;2023-11-19T07:14:19;17.52;;;2.72;;
43042;SDS011;28667;50.758;6.096;2023-11-19T07:16:45;9.60;;;2.95;;
43042;SDS011;28667;50.758;6.096;2023-11-19T07:19:15;17.52;;;3.20;;
43042;SDS011;28667;50.758;6.096;2023-11-19T07:21:41;15.50;;;3.63;;
43042;SDS011;28667;50.758;6.096;2023-11-19T07:24:09;29.98;;;3.35;;
43042;SDS011;28667;50.758;6.096;2023-11-19T07:26:40;15.80;;;2.67;;
43042;SDS011;28667;50.758;6.096;2023-11-19T07:29:08;15.70;;;3.25;;
43042;SDS011;28667;50.758;6.096;2023-11-19T07:31:33;16.55;;;2.97;;
43042;SDS011;28667;50.758;6.096;2023-11-19T07:33:59;20.83;;;3.95;;
43042;SDS011;28667;50.758;6.096;2023-11-19T07:36:25;22.95;;;3.40;;
43042;SDS011;28667;50.758;6.096;2023-11-19T07:38:51;20.23;;;4.13;;
43042;SDS011;28667;50.758;6.096;2023-11-19T07:41:16;13.10;;;3.22;;
43042;SDS011;28667;50.758;6.096;2023-11-19T07:43:45;14.80;;;3.00;;
43042;SDS011;28667;50.758;6.096;2023-11-19T07:46:15;19.95;;;3.25;;
43042;SDS011;28667;50.758;6.096;2023-11-19T07:48:41;16.90;;;3.53;;
43042;SDS011;28667;50.758;6.096;2023-11-19T07:51:07;21.88;;;3.38;;
43042;SDS011;28667;50.758;6.096;2023-11-19T07:53:33;17.02;;;3.03;;
43042;SDS011;28667;50.758;6.096;2023-11-19T07:55:59;17.35;;;2.92;;
43042;SDS011;28667;50.758;6.096;2023-11-19T07:58:25;22.90;;;2.80;;
43042;SDS011;28667;50.758;6.096;2023-11-19T08:00:51;14.43;;;2.58;;
43042;SDS011;28667;50.758;6.096;2023-11-19T08:03:17;23.80;;;3.67;;
43042;SDS011;28667;50.758;6.096;2023-11-19T08:05:44;14.35;;;2.38;;
43042;SDS011;28667;50.758;6.096;2023-11-19T08:08:11;21.63;;;2.80;;
43042;SDS011;28667;50.758;6.096;2023-11-19T08:10:37;19.10;;;3.20;;
43042;SDS011;28667;50.758;6.096;2023-11-19T08:13:03;21.83;;;3.10;;
43042;SDS011;28667;50.758;6.096;2023-11-19T08:15:29;15.63;;;2.90;;
43042;SDS011;28667;50.758;6.096;2023-11-19T08:17:54;16.15;;;3.83;;
43042;SDS011;28667;50.758;6.096;2023-11-19T08:20:20;18.67;;;2.55;;
43042;SDS011;28667;50.758;6.096;2023-11-19T08:22:46;25.15;;;3.42;;
43042;SDS011;28667;50.758;6.096;2023-11-19T08:25:11;14.93;;;3.33;;
43042;SDS011;28667;50.758;6.096;2023-11-19T08:27:38;20.77;;;3.22;;
43042;SDS011;28667;50.758;6.096;2023-11-19T08:30:04;17.17;;;2.78;;
43042;SDS011;28667;50.758;6.096;2023-11-19T08:32:31;23.42;;;3.10;;
43042;SDS011;28667;50.758;6.096;2023-11-19T08:34:57;13.35;;;2.88;;
43042;SDS011;28667;50.758;6.096;2023-11-19T08:37:23;21.45;;;4.10;;
43042;SDS011;28667;50.758;6.096;2023-11-19T08:39:49;20.33;;;3.25;;
43042;SDS011;28667;50.758;6.096;2023-11-19T08:42:16;21.75;;;3.30;;
43042;SDS011;28667;50.758;6.096;2023-11-19T08:44:42;20.92;;;3.40;;
43042;SDS011;28667;50.758;6.096;2023-11-19T08:47:12;20.52;;;2.88;;
43042;SDS011;28667;50.758;6.096;2023-11-19T08:49:38;17.67;;;3.50;;
43042;SDS011;28667;50.758;6.096;2023-11-19T08:52:04;16.77;;;3.47;;
43042;SDS011;28667;50.758;6.096;2023-11-19T08:54:32;25.70;;;4.60;;
43042;SDS011;28667;50.758;6.096;2023-11-19T08:56:58;17.85;;;3.50;;
43042;SDS011;28667;50.758;6.096;2023-11-19T08:59:24;16.80;;;3.20;;
43042;SDS011;28667;50.758;6.096;2023-11-19T09:01:50;19.45;;;3.47;;
43042;SDS011;28667;50.758;6.096;2023-11-19T09:04:16;31.02;;;4.28;;
43042;SDS011;28667;50.758;6.096;2023-11-19T09:06:42;20.40;;;3.63;;
43042;SDS011;28667;50.758;6.096;2023-11-19T09:09:08;19.80;;;3.50;;
43042;SDS011;28667;50.758;6.096;2023-11-19T09:11:34;19.17;;;3.50;;
43042;SDS011;28667;50.758;6.096;2023-11-19T09:14:01;17.35;;;2.88;;
43042;SDS011;28667;50.758;6.096;2023-11-19T09:16:27;13.93;;;2.78;;
43042;SDS011;28667;50.758;6.096;2023-11-19T09:18:53;22.23;;;4.38;;
43042;SDS011;28667;50.758;6.096;2023-11-19T09:21:19;23.63;;;3.78;;
43042;SDS011;28667;50.758;6.096;2023-11-19T09:23:44;24.55;;;3.45;;
43042;SDS011;28667;50.758;6.096;2023-11-19T09:26:12;23.70;;;3.70;;
43042;SDS011;28667;50.758;6.096;2023-11-19T09:28:38;21.40;;;2.92;;
43042;SDS011;28667;50.758;6.096;2023-11-19T09:31:12;28.00;;;3.63;;
43042;SDS011;28667;50.758;6.096;2023-11-19T09:33:39;20.42;;;2.72;;
43042;SDS011;28667;50.758;6.096;2023-11-19T09:36:04;20.10;;;3.40;;
43042;SDS011;28667;50.758;6.096;2023-11-19T09:38:31;23.00;;;3.42;;
43042;SDS011;28667;50.758;6.096;2023-11-19T09:40:58;18.08;;;3.10;;
43042;SDS011;28667;50.758;6.096;2023-11-19T09:43:24;21.05;;;3.45;;
43042;SDS011;28667;50.758;6.096;2023-11-19T09:45:53;18.42;;;3.58;;
43042;SDS011;28667;50.758;6.096;2023-11-19T09:48:21;18.10;;;3.17;;
43042;SDS011;28667;50.758;6.096;2023-11-19T09:50:48;15.43;;;2.75;;
43042;SDS011;28667;50.758;6.096;2023-11-19T09:53:17;11.82;;;2.35;;
43042;SDS011;28667;50.758;6.096;2023-11-19T09:55:43;23.98;;;3.50;;
43042;SDS011;28667;50.758;6.096;2023-11-19T09:58:10;14.77;;;3.00;;
43042;SDS011;28667;50.758;6.096;2023-11-19T10:00:39;14.10;;;3.65;;
43042;SDS011;28667;50.758;6.096;2023-11-19T10:03:06;19.33;;;3.83;;
43042;SDS011;28667;50.758;6.096;2023-11-19T10:05:34;17.48;;;2.70;;
43042;SDS011;28667;50.758;6.096;2023-11-19T10:08:01;17.33;;;2.90;;
43042;SDS011;28667;50.758;6.096;2023-11-19T10:10:28;21.55;;;3.40;;
43042;SDS011;28667;50.758;6.096;2023-11-19T10:12:53;17.77;;;2.85;;
43042;SDS011;28667;50.758;6.096;2023-11-19T10:15:20;21.90;;;3.08;;
43042;SDS011;28667;50.758;6.096;2023-11-19T10:17:48;17.42;;;3.00;;
43042;SDS011;28667;50.758;6.096;2023-11-19T10:20:13;22.30;;;3.08;;
43042;SDS011;28667;50.758;6.096;2023-11-19T10:22:39;17.08;;;2.90;;
43042;SDS011;28667;50.758;6.096;2023-11-19T10:25:15;11.43;;;2.53;;
43042;SDS011;28667;50.758;6.096;2023-11-19T10:27:47;18.50;;;3.20;;
43042;SDS011;28667;50.758;6.096;2023-11-19T10:30:13;20.30;;;3.40;;
43042;SDS011;28667;50.758;6.096;2023-11-19T10:35:28;14.43;;;2.88;;
43042;SDS011;28667;50.758;6.096;2023-11-19T10:37:54;15.23;;;2.88;;
43042;SDS011;28667;50.758;6.096;2023-11-19T10:40:20;17.58;;;3.10;;
43042;SDS011;28667;50.758;6.096;2023-11-19T10:42:46;13.27;;;2.33;;
43042;SDS011;28667;50.758;6.096;2023-11-19T10:45:23;21.17;;;3.00;;
43042;SDS011;28667;50.758;6.096;2023-11-19T10:47:50;18.33;;;2.70;;
43042;SDS011;28667;50.758;6.096;2023-11-19T10:50:17;21.90;;;4.22;;
43042;SDS011;28667;50.758;6.096;2023-11-19T10:52:43;17.08;;;3.35;;
43042;SDS011;28667;50.758;6.096;2023-11-19T10:55:11;15.20;;;2.80;;
43042;SDS011;28667;50.758;6.096;2023-11-19T10:57:42;19.00;;;3.38;;
43042;SDS011;28667;50.758;6.096;2023-11-19T11:00:12;18.10;;;2.45;;
43042;SDS011;28667;50.758;6.096;2023-11-19T11:02:42;16.67;;;3.15;;
43042;SDS011;28667;50.758;6.096;2023-11-19T11:05:12;15.05;;;2.92;;
43042;SDS011;28667;50.758;6.096;2023-11-19T11:07:40;13.10;;;3.13;;
43042;SDS011;28667;50.758;6.096;2023-11-19T11:10:07;15.30;;;3.10;;
43042;SDS011;28667;50.758;6.096;2023-11-19T11:12:37;17.27;;;2.90;;
43042;SDS011;28667;50.758;6.096;2023-11-19T11:15:04;17.27;;;3.33;;
43042;SDS011;28667;50.758;6.096;2023-11-19T11:17:32;16.33;;;2.63;;
43042;SDS011;28667;50.758;6.096;2023-11-19T11:20:03;14.50;;;2.85;;
43042;SDS011;28667;50.758;6.096;2023-11-19T11:22:31;18.10;;;3.28;;
43042;SDS011;28667;50.758;6.096;2023-11-19T11:25:31;19.95;;;3.20;;
43042;SDS011;28667;50.758;6.096;2023-11-19T11:30:39;16.38;;;2.70;;
43042;SDS011;28667;50.758;6.096;2023-11-19T11:35:55;13.85;;;3.30;;
43042;SDS011;28667;50.758;6.096;2023-11-19T11:38:37;19.20;;;3.08;;
43042;SDS011;28667;50.758;6.096;2023-11-19T11:41:27;17.67;;;2.85;;
43042;SDS011;28667;50.758;6.096;2023-11-19T11:43:53;21.35;;;4.18;;
43042;SDS011;28667;50.758;6.096;2023-11-19T11:49:03;18.58;;;2.70;;
43042;SDS011;28667;50.758;6.096;2023-11-19T11:59:41;19.33;;;3.35;;
43042;SDS011;28667;50.758;6.096;2023-11-19T12:02:08;18.17;;;2.67;;
43042;SDS011;28667;50.758;6.096;2023-11-19T12:04:35;15.20;;;2.65;;
43042;SDS011;28667;50.758;6.096;2023-11-19T12:07:06;18.48;;;2.67;;
43042;SDS011;28667;50.758;6.096;2023-11-19T12:09:33;14.98;;;2.95;;
43042;SDS011;28667;50.758;6.096;2023-11-19T12:12:07;12.90;;;2.70;;
43042;SDS011;28667;50.758;6.096;2023-11-19T12:20:00;12.25;;;2.72;;
43042;SDS011;28667;50.758;6.096;2023-11-19T12:22:31;10.35;;;2.75;;
43042;SDS011;28667;50.758;6.096;2023-11-19T12:24:57;13.10;;;3.33;;
43042;SDS011;28667;50.758;6.096;2023-11-19T12:27:24;12.40;;;3.05;;
43042;SDS011;28667;50.758;6.096;2023-11-19T12:29:49;17.10;;;2.90;;
43042;SDS011;28667;50.758;6.096;2023-11-19T12:32:15;25.52;;;3.05;;
43042;SDS011;28667;50.758;6.096;2023-11-19T12:34:41;19.42;;;3.35;;
43042;SDS011;28667;50.758;6.096;2023-11-19T12:37:07;16.95;;;3.00;;
43042;SDS011;28667;50.758;6.096;2023-11-19T12:39:36;20.17;;;3.50;;
43042;SDS011;28667;50.758;6.096;2023-11-19T12:42:02;16.05;;;2.80;;
43042;SDS011;28667;50.758;6.096;2023-11-19T12:44:27;20.90;;;3.00;;
43042;SDS011;28667;50.758;6.096;2023-11-19T12:47:00;13.55;;;2.97;;
43042;SDS011;28667;50.758;6.096;2023-11-19T12:49:27;15.23;;;4.00;;
43042;SDS011;28667;50.758;6.096;2023-11-19T12:51:52;18.27;;;3.20;;
43042;SDS011;28667;50.758;6.096;2023-11-19T12:54:18;13.23;;;2.55;;
43042;SDS011;28667;50.758;6.096;2023-11-19T12:56:53;26.67;;;3.17;;
43042;SDS011;28667;50.758;6.096;2023-11-19T12:59:19;17.40;;;3.13;;
43042;SDS011;28667;50.758;6.096;2023-11-19T13:01:57;14.63;;;2.55;;
43042;SDS011;28667;50.758;6.096;2023-11-19T13:04:23;16.52;;;2.50;;
43042;SDS011;28667;50.758;6.096;2023-11-19T13:06:56;13.75;;;2.53;;
43042;SDS011;28667;50.758;6.096;2023-11-19T13:09:26;17.70;;;3.63;;
43042;SDS011;28667;50.758;6.096;2023-11-19T13:11:54;12.23;;;2.88;;
43042;SDS011;28667;50.758;6.096;2023-11-19T13:14:35;19.77;;;3.45;;
43042;SDS011;28667;50.758;6.096;2023-11-19T13:17:05;15.73;;;2.72;;
43042;SDS011;28667;50.758;6.096;2023-11-19T13:19:30;13.20;;;3.35;;
43042;SDS011;28667;50.758;6.096;2023-11-19T13:21:56;15.02;;;2.40;;
43042;SDS011;28667;50.758;6.096;2023-11-19T13:24:22;15.52;;;3.30;;
43042;SDS011;28667;50.758;6.096;2023-11-19T13:26:48;17.33;;;3.08;;
43042;SDS011;28667;50.758;6.096;2023-11-19T13:29:13;12.73;;;2.40;;
43042;SDS011;28667;50.758;6.096;2023-11-19T13:31:39;20.55;;;3.53;;
43042;SDS011;28667;50.758;6.096;2023-11-19T13:34:05;13.95;;;2.58;;
43042;SDS011;28667;50.758;6.096;2023-11-19T13:36:33;14.40;;;2.15;;
43042;SDS011;28667;50.758;6.096;2023-11-19T13:38:59;18.65;;;2.20;;
43042;SDS011;28667;50.758;6.096;2023-11-19T13:41:26;15.55;;;2.53;;
43042;SDS011;28667;50.758;6.096;2023-11-19T13:43:51;12.18;;;2.40;;
43042;SDS011;28667;50.758;6.096;2023-11-19T13:46:17;14.90;;;2.47;;
43042;SDS011;28667;50.758;6.096;2023-11-19T13:48:43;14.80;;;2.35;;
43042;SDS011;28667;50.758;6.096;2023-11-19T13:51:09;17.23;;;2.75;;
43042;SDS011;28667;50.758;6.096;2023-11-19T13:53:35;13.43;;;3.22;;
43042;SDS011;28667;50.758;6.096;2023-11-19T13:56:01;15.05;;;2.10;;
43042;SDS011;28667;50.758;6.096;2023-11-19T13:58:27;17.20;;;2.90;;
43042;SDS011;28667;50.758;6.096;2023-11-19T14:00:52;9.85;;;2.38;;
43042;SDS011;28667;50.758;6.096;2023-11-19T14:03:18;15.00;;;2.40;;
43042;SDS011;28667;50.758;6.096;2023-11-19T14:05:45;15.15;;;2.88;;
43042;SDS011;28667;50.758;6.096;2023-11-19T14:08:11;12.02;;;2.60;;
43042;SDS011;28667;50.758;6.096;2023-11-19T14:10:37;11.60;;;2.53;;
43042;SDS011;28667;50.758;6.096;2023-11-19T14:13:06;14.95;;;2.72;;
43042;SDS011;28667;50.758;6.096;2023-11-19T14:15:33;18.02;;;2.40;;
43042;SDS011;28667;50.758;6.096;2023-11-19T14:17:59;15.13;;;3.03;;
43042;SDS011;28667;50.758;6.096;2023-11-19T14:20:25;14.63;;;2.90;;
43042;SDS011;28667;50.758;6.096;2023-11-19T14:22:50;15.35;;;2.90;;
43042;SDS011;28667;50.758;6.096;2023-11-19T14:25:17;11.38;;;2.45;;
43042;SDS011;28667;50.758;6.096;2023-11-19T14:27:44;12.65;;;2.40;;
43042;SDS011;28667;50.758;6.096;2023-11-19T14:30:11;18.95;;;2.97;;
43042;SDS011;28667;50.758;6.096;2023-11-19T14:32:41;16.25;;;3.22;;
43042;SDS011;28667;50.758;6.096;2023-11-19T14:35:09;16.38;;;2.90;;
43042;SDS011;28667;50.758;6.096;2023-11-19T14:37:35;16.95;;;2.85;;
43042;SDS011;28667;50.758;6.096;2023-11-19T14:40:01;11.48;;;2.30;;
43042;SDS011;28667;50.758;6.096;2023-11-19T14:42:31;15.63;;;2.95;;
43042;SDS011;28667;50.758;6.096;2023-11-19T14:44:57;16.30;;;2.60;;
43042;SDS011;28667;50.758;6.096;2023-11-19T14:47:23;17.35;;;3.05;;
43042;SDS011;28667;50.758;6.096;2023-11-19T14:49:48;19.70;;;2.95;;
43042;SDS011;28667;50.758;6.096;2023-11-19T14:52:14;16.08;;;3.25;;
43042;SDS011;28667;50.758;6.096;2023-11-19T14:54:40;22.80;;;3.47;;
43042;SDS011;28667;50.758;6.096;2023-11-19T14:57:06;14.48;;;3.00;;
43042;SDS011;28667;50.758;6.096;2023-11-19T14:59:38;13.95;;;2.53;;
43042;SDS011;28667;50.758;6.096;2023-11-19T15:02:04;17.35;;;2.75;;
43042;SDS011;28667;50.758;6.096;2023-11-19T15:04:30;18.38;;;2.67;;